Terminal Aerodrome Forecast
Issued by NWS

Home | Current Version | Previous Version | Text Only | Print | Product List | Glossary On
Versions: 1 2 3 4 5 6 7 8 9 10 11 12 13 14 15 16 17 18 19
000
FTUS44 KTSA 221720
TAFFYV
TAF
KFYV 221720Z 2218/2318 18011KT P6SM SCT035 SCT250
     FM230100 00000KT P6SM FEW250
     FM231500 17006KT P6SM FEW035=

USA.gov is the U.S. government's official web portal to all federal, state and local government web resources and services.